Time;durP1;ratioP1;P1;durP2;ratioP2;P2;SDS_P1;SDS_P2;PMS_P1;PMS_P2;Temp;Humidity;BMP_temperature;BMP_pressure;BME280_temperature;BME280_humidity;BME280_pressure;Samples;Min_cycle;Max_cycle;Signal;HPM_P1;HPM_P2
2022/11/09 00:00:39;;;;;;;8.30;2.60;;;13.00;99.90;;;;;;4881505;29;20098;-75
2022/11/09 00:03:05;;;;;;;10.98;2.78;;;13.00;99.90;;;;;;4898950;29;20537;-74
2022/11/09 00:05:31;;;;;;;4.97;2.35;;;13.10;99.90;;;;;;4897263;29;20051;-77
2022/11/09 00:07:57;;;;;;;5.53;2.28;;;13.10;99.90;;;;;;4896892;29;20036;-78
2022/11/09 00:10:22;;;;;;;5.65;2.30;;;13.10;99.90;;;;;;4881512;29;20039;-75
2022/11/09 00:12:48;;;;;;;6.75;2.60;;;13.20;99.90;;;;;;4897806;29;20033;-78
2022/11/09 00:15:13;;;;;;;5.47;2.20;;;13.20;99.90;;;;;;4897174;29;21058;-75
2022/11/09 00:17:39;;;;;;;4.30;2.35;;;13.20;99.90;;;;;;4898352;29;20029;-76
2022/11/09 00:20:05;;;;;;;5.80;2.45;;;13.20;99.90;;;;;;4896139;29;20524;-76
2022/11/09 00:22:30;;;;;;;8.10;2.28;;;13.20;99.90;;;;;;4899350;29;20049;-78
2022/11/09 00:24:56;;;;;;;3.75;2.17;;;13.20;99.90;;;;;;4881433;29;20450;-75
2022/11/09 00:27:22;;;;;;;8.55;2.35;;;13.20;99.90;;;;;;4898471;29;20025;-73
2022/11/09 00:29:47;;;;;;;5.25;2.20;;;13.20;99.90;;;;;;4898312;29;20025;-75
2022/11/09 00:32:13;;;;;;;6.35;2.50;;;13.20;99.90;;;;;;4880862;29;20120;-73
2022/11/09 00:34:38;;;;;;;8.85;2.38;;;13.20;99.90;;;;;;4897807;29;20033;-75
2022/11/09 00:37:04;;;;;;;5.93;2.13;;;13.10;99.90;;;;;;4897669;29;20021;-74
2022/11/09 00:39:30;;;;;;;9.02;3.17;;;13.10;99.90;;;;;;4898057;29;20021;-76
2022/11/09 00:41:59;;;;;;;6.68;2.70;;;13.10;99.90;;;;;;4880995;29;20520;-77
2022/11/09 00:44:25;;;;;;;9.57;2.33;;;13.10;99.90;;;;;;4897827;29;20036;-78
2022/11/09 00:46:51;;;;;;;5.57;2.47;;;13.00;99.90;;;;;;4898071;29;20044;-75
2022/11/09 00:49:16;;;;;;;5.43;2.40;;;13.00;99.90;;;;;;4896858;29;20048;-77
2022/11/09 00:51:42;;;;;;;5.20;2.25;;;13.00;99.90;;;;;;4897729;29;20031;-75
2022/11/09 00:54:08;;;;;;;6.25;2.28;;;12.90;99.90;;;;;;4897692;29;20033;-76
2022/11/09 00:56:34;;;;;;;3.88;2.40;;;12.90;99.90;;;;;;4897483;29;20029;-76
2022/11/09 00:58:59;;;;;;;6.20;2.85;;;12.90;99.90;;;;;;4897553;29;20017;-75
2022/11/09 01:01:26;;;;;;;7.15;2.28;;;12.90;99.90;;;;;;4880297;29;20486;-75
2022/11/09 01:03:51;;;;;;;6.68;2.40;;;12.90;99.90;;;;;;4897786;29;20025;-75
2022/11/09 01:06:20;;;;;;;2.95;1.85;;;12.90;99.90;;;;;;4897274;29;20457;-72
2022/11/09 01:08:47;;;;;;;8.85;2.67;;;12.80;99.90;;;;;;4896200;29;20738;-75
2022/11/09 01:11:13;;;;;;;4.72;2.42;;;12.80;99.90;;;;;;4895882;29;20048;-72
2022/11/09 01:13:39;;;;;;;5.72;2.33;;;12.90;99.90;;;;;;4897013;29;20466;-76
2022/11/09 01:16:07;;;;;;;5.45;2.15;;;12.80;99.90;;;;;;4895976;29;20132;-77
2022/11/09 01:18:33;;;;;;;3.95;2.15;;;12.80;99.90;;;;;;4896727;29;20032;-78
2022/11/09 01:21:02;;;;;;;9.82;2.63;;;12.80;99.90;;;;;;4895931;29;20065;-75
2022/11/09 01:23:27;;;;;;;6.25;2.47;;;12.70;99.90;;;;;;4896128;29;20064;-77
2022/11/09 01:26:00;;;;;;;8.82;2.50;;;12.70;99.90;;;;;;4896461;29;20475;-76
2022/11/09 01:28:26;;;;;;;5.63;2.55;;;12.80;99.90;;;;;;4880512;29;20028;-74
2022/11/09 01:30:52;;;;;;;4.10;2.22;;;12.80;99.90;;;;;;4897211;29;20835;-75
2022/11/09 01:33:18;;;;;;;8.57;2.63;;;12.80;99.90;;;;;;4896858;29;20033;-78
2022/11/09 01:35:43;;;;;;;6.47;2.60;;;12.80;99.90;;;;;;4896311;29;20451;-77
2022/11/09 01:38:09;;;;;;;6.18;2.33;;;12.80;99.90;;;;;;4896556;29;20032;-77
2022/11/09 01:40:39;;;;;;;4.75;2.47;;;12.80;99.90;;;;;;4896314;29;20037;-75
2022/11/09 01:43:13;;;;;;;5.82;2.35;;;12.70;99.90;;;;;;4896548;29;20040;-75
2022/11/09 01:45:40;;;;;;;8.07;2.97;;;12.70;99.90;;;;;;4896324;29;20057;-77
2022/11/09 01:48:13;;;;;;;6.00;2.20;;;12.70;99.90;;;;;;4895790;29;20036;-76
2022/11/09 01:50:54;;;;;;;9.38;2.53;;;12.70;99.90;;;;;;4896740;29;20092;-74
2022/11/09 01:53:26;;;;;;;6.60;2.35;;;12.70;99.90;;;;;;4897024;29;20053;-76
2022/11/09 01:55:55;;;;;;;5.88;2.47;;;12.70;99.90;;;;;;4896850;29;20052;-76
2022/11/09 01:58:36;;;;;;;4.75;2.17;;;12.70;99.90;;;;;;4894951;29;20022;-76
2022/11/09 02:01:03;;;;;;;6.20;2.45;;;12.70;99.90;;;;;;4879885;29;20060;-76
2022/11/09 02:03:34;;;;;;;4.32;2.45;;;12.70;99.90;;;;;;4894795;29;20028;-77
2022/11/09 02:06:03;;;;;;;6.10;2.30;;;12.70;99.90;;;;;;4895226;29;20053;-78
2022/11/09 02:08:29;;;;;;;7.45;2.13;;;12.70;99.90;;;;;;4895003;29;20035;-79
2022/11/09 02:11:05;;;;;;;4.90;2.30;;;12.70;99.90;;;;;;4896525;29;20092;-74
2022/11/09 02:13:32;;;;;;;5.97;2.30;;;12.70;99.90;;;;;;4896313;29;20017;-78
2022/11/09 02:15:59;;;;;;;5.93;2.10;;;12.70;99.90;;;;;;4896180;29;20085;-76
2022/11/09 02:18:25;;;;;;;3.80;2.47;;;12.70;99.90;;;;;;4879831;29;20080;-77
2022/11/09 02:20:56;;;;;;;7.80;2.63;;;12.70;99.90;;;;;;4879381;29;20100;-76
2022/11/09 02:23:24;;;;;;;7.30;2.38;;;12.70;99.90;;;;;;4896119;29;20405;-76
2022/11/09 02:25:58;;;;;;;3.83;2.10;;;12.70;99.90;;;;;;4894579;29;20035;-76
2022/11/09 02:28:25;;;;;;;5.50;2.55;;;12.60;99.90;;;;;;4879814;29;20084;-77
2022/11/09 02:30:53;;;;;;;9.45;2.75;;;12.70;99.90;;;;;;4899978;29;20037;-74
2022/11/09 02:33:18;;;;;;;9.60;2.60;;;12.70;99.90;;;;;;4900218;29;20116;-78
2022/11/09 02:35:44;;;;;;;7.35;2.80;;;12.60;99.90;;;;;;4899835;29;21397;-75
2022/11/09 02:38:12;;;;;;;7.22;2.30;;;12.60;99.90;;;;;;4899836;29;20111;-77
2022/11/09 02:40:40;;;;;;;7.25;2.78;;;12.60;99.90;;;;;;4899985;29;20033;-79
2022/11/09 02:43:07;;;;;;;5.13;2.75;;;12.60;99.90;;;;;;4883084;29;20029;-77
2022/11/09 02:45:33;;;;;;;4.63;2.50;;;12.60;99.90;;;;;;4898121;29;20024;-75
2022/11/09 02:47:59;;;;;;;6.97;2.67;;;12.60;99.90;;;;;;4897944;29;20042;-77
2022/11/09 02:50:25;;;;;;;6.90;2.67;;;12.60;99.90;;;;;;4898329;29;20032;-74
2022/11/09 02:52:51;;;;;;;9.23;2.40;;;12.50;99.90;;;;;;4899851;29;20184;-76
2022/11/09 02:55:19;;;;;;;11.75;2.53;;;12.50;99.90;;;;;;4899686;29;20486;-76
2022/11/09 02:57:45;;;;;;;6.10;2.75;;;12.50;99.90;;;;;;4899116;29;20045;-76
2022/11/09 03:00:11;;;;;;;11.88;3.28;;;12.50;99.90;;;;;;4899724;29;20043;-77
2022/11/09 03:02:37;;;;;;;4.30;2.50;;;12.50;99.90;;;;;;4899550;29;20031;-75
2022/11/09 03:05:03;;;;;;;5.15;2.80;;;12.60;99.90;;;;;;4881864;29;20029;-76
2022/11/09 03:07:28;;;;;;;5.50;2.42;;;12.60;99.90;;;;;;4899290;29;20025;-78
2022/11/09 03:09:54;;;;;;;5.85;2.67;;;12.60;99.90;;;;;;4898081;29;20057;-76
2022/11/09 03:12:29;;;;;;;5.85;2.92;;;12.60;99.90;;;;;;4899518;29;20035;-76
2022/11/09 03:14:56;;;;;;;4.65;2.30;;;12.60;99.90;;;;;;4900179;29;20040;-76
2022/11/09 03:17:22;;;;;;;5.90;2.53;;;12.60;99.90;;;;;;4898239;29;20035;-76
2022/11/09 03:19:47;;;;;;;5.45;2.78;;;12.60;99.90;;;;;;4897588;29;20037;-76
2022/11/09 03:22:13;;;;;;;6.90;2.90;;;12.60;99.90;;;;;;4880965;29;20050;-77
2022/11/09 03:24:39;;;;;;;5.05;2.63;;;12.70;99.90;;;;;;4899819;29;21045;-76
2022/11/09 03:27:05;;;;;;;6.55;2.75;;;12.60;99.90;;;;;;4899482;29;20504;-77
2022/11/09 03:29:30;;;;;;;5.43;2.30;;;12.60;99.90;;;;;;4882767;29;20040;-76
2022/11/09 03:31:56;;;;;;;12.45;3.10;;;12.60;99.90;;;;;;4899296;29;20104;-78
2022/11/09 03:34:22;;;;;;;6.53;2.65;;;12.60;99.90;;;;;;4898065;29;20119;-78
2022/11/09 03:36:48;;;;;;;5.15;2.38;;;12.50;99.90;;;;;;4898877;29;20036;-76
2022/11/09 03:39:13;;;;;;;8.57;2.80;;;12.50;99.90;;;;;;4898852;29;20128;-79
2022/11/09 03:41:39;;;;;;;5.57;2.95;;;12.40;99.90;;;;;;4897948;29;20179;-78
2022/11/09 03:44:04;;;;;;;10.15;2.80;;;12.40;99.90;;;;;;4899410;29;20025;-76
2022/11/09 03:46:30;;;;;;;5.75;2.83;;;12.40;99.90;;;;;;4898781;29;20473;-75
2022/11/09 03:48:56;;;;;;;11.85;2.65;;;12.30;99.90;;;;;;4899384;29;20037;-77
2022/11/09 03:51:21;;;;;;;6.13;2.20;;;12.30;99.90;;;;;;4898858;29;20041;-77
2022/11/09 03:53:47;;;;;;;6.15;2.35;;;12.30;99.90;;;;;;4898612;29;20021;-78
2022/11/09 03:56:13;;;;;;;5.20;2.60;;;12.20;99.90;;;;;;4898074;29;20069;-76
2022/11/09 03:58:38;;;;;;;4.78;2.17;;;12.20;99.90;;;;;;4899070;29;20059;-75
2022/11/09 04:01:04;;;;;;;5.30;2.20;;;12.20;99.90;;;;;;4900012;29;20399;-77
2022/11/09 04:03:29;;;;;;;5.25;2.67;;;12.20;99.90;;;;;;4898497;29;20032;-77
2022/11/09 04:05:57;;;;;;;8.13;2.38;;;12.30;99.90;;;;;;4898934;29;20371;-75
2022/11/09 04:08:23;;;;;;;6.35;2.40;;;12.20;99.90;;;;;;4896167;29;20032;-78
2022/11/09 04:10:49;;;;;;;6.22;2.80;;;12.30;99.90;;;;;;4898551;29;20029;-77
2022/11/09 04:13:14;;;;;;;7.35;2.80;;;12.30;99.90;;;;;;4898438;29;20052;-77
2022/11/09 04:15:41;;;;;;;7.75;3.08;;;12.40;99.90;;;;;;4896118;29;20097;-77
2022/11/09 04:18:10;;;;;;;3.90;2.00;;;12.40;99.90;;;;;;4897921;29;20033;-75
2022/11/09 04:20:36;;;;;;;4.78;2.40;;;12.40;99.90;;;;;;4896309;29;20072;-76
2022/11/09 04:23:03;;;;;;;4.50;2.42;;;12.40;99.90;;;;;;4897948;29;20049;-77
2022/11/09 04:25:32;;;;;;;7.70;2.47;;;12.40;99.90;;;;;;4896964;29;20036;-76
2022/11/09 04:27:58;;;;;;;12.85;2.70;;;12.50;99.90;;;;;;4896806;29;20044;-76
2022/11/09 04:30:28;;;;;;;7.47;2.25;;;12.40;99.90;;;;;;4880862;29;20025;-76
2022/11/09 04:32:58;;;;;;;6.72;2.67;;;12.40;99.90;;;;;;4898535;29;20028;-77
2022/11/09 04:35:25;;;;;;;3.28;1.95;;;12.40;99.90;;;;;;4898130;29;20072;-76
2022/11/09 04:38:01;;;;;;;8.40;2.42;;;12.40;99.90;;;;;;4897643;29;20025;-77
2022/11/09 04:40:29;;;;;;;6.78;2.50;;;12.50;99.90;;;;;;4898583;29;20037;-77
2022/11/09 04:42:57;;;;;;;4.38;2.35;;;12.40;99.90;;;;;;4897953;29;20053;-74
2022/11/09 04:45:23;;;;;;;6.03;2.53;;;12.50;99.90;;;;;;4897730;29;20033;-78
2022/11/09 04:47:48;;;;;;;10.95;2.70;;;12.50;99.90;;;;;;4881075;29;20048;-77
2022/11/09 04:50:14;;;;;;;10.82;3.00;;;12.40;99.90;;;;;;4897601;29;20081;-77
2022/11/09 04:52:40;;;;;;;5.82;2.45;;;12.40;99.90;;;;;;4897388;29;20049;-77
2022/11/09 04:55:06;;;;;;;8.35;3.05;;;12.50;99.90;;;;;;4897848;29;20037;-77
2022/11/09 04:57:32;;;;;;;7.85;2.50;;;12.40;99.90;;;;;;4879948;29;20033;-78
2022/11/09 04:59:58;;;;;;;7.15;2.63;;;12.40;99.90;;;;;;4897623;29;20059;-78
2022/11/09 05:02:24;;;;;;;7.20;2.35;;;12.50;99.90;;;;;;4898037;29;20065;-77
2022/11/09 05:04:49;;;;;;;8.52;2.22;;;12.40;99.90;;;;;;4895678;29;20037;-78
2022/11/09 05:07:15;;;;;;;5.43;2.55;;;12.40;99.90;;;;;;4897468;29;20024;-77
2022/11/09 05:09:40;;;;;;;7.43;2.35;;;12.40;99.90;;;;;;4895602;29;20024;-76
2022/11/09 05:12:07;;;;;;;8.00;2.88;;;12.50;99.90;;;;;;4897188;29;20033;-76
2022/11/09 05:14:32;;;;;;;6.45;3.33;;;12.50;99.90;;;;;;4896870;29;20033;-79
2022/11/09 05:16:58;;;;;;;8.93;2.70;;;12.60;99.90;;;;;;4880356;29;20040;-77
2022/11/09 05:19:24;;;;;;;5.47;2.67;;;12.60;99.90;;;;;;4897560;29;20033;-76
2022/11/09 05:21:49;;;;;;;7.10;2.60;;;12.60;99.90;;;;;;4895212;29;20041;-76
2022/11/09 05:24:15;;;;;;;4.32;2.13;;;12.70;99.90;;;;;;4897252;29;20052;-75
2022/11/09 05:26:41;;;;;;;7.93;2.15;;;12.70;99.90;;;;;;4897184;29;20029;-76
2022/11/09 05:29:09;;;;;;;11.18;2.30;;;12.70;99.90;;;;;;4880484;29;20029;-74
2022/11/09 05:31:35;;;;;;;4.07;2.15;;;12.70;99.90;;;;;;4895243;29;20029;-74
2022/11/09 05:34:01;;;;;;;9.07;2.72;;;12.60;99.90;;;;;;4896972;29;20040;-75
2022/11/09 05:36:29;;;;;;;6.63;2.70;;;12.60;99.90;;;;;;4897205;29;20106;-76
2022/11/09 05:38:55;;;;;;;8.65;2.10;;;12.70;99.90;;;;;;4898065;29;20021;-75
2022/11/09 05:41:21;;;;;;;4.75;2.22;;;12.70;99.90;;;;;;4896965;29;20055;-77
2022/11/09 05:43:47;;;;;;;6.05;2.30;;;12.60;99.90;;;;;;4896641;29;20123;-77
2022/11/09 05:46:14;;;;;;;5.43;2.08;;;12.70;99.90;;;;;;4896980;29;20025;-77
2022/11/09 05:48:40;;;;;;;7.72;2.53;;;12.60;99.90;;;;;;4896989;29;20037;-76
2022/11/09 05:51:07;;;;;;;4.63;1.70;;;12.60;99.90;;;;;;4896681;29;20062;-78
2022/11/09 05:53:33;;;;;;;7.97;2.47;;;12.60;99.90;;;;;;4895840;29;20043;-76
2022/11/09 05:56:08;;;;;;;9.27;2.40;;;12.60;99.90;;;;;;4896648;29;20064;-77
2022/11/09 05:58:37;;;;;;;8.18;2.70;;;12.70;99.90;;;;;;4896848;29;20048;-76
2022/11/09 06:01:08;;;;;;;8.90;2.78;;;12.70;99.90;;;;;;4895148;29;20032;-75
2022/11/09 06:03:34;;;;;;;10.32;3.08;;;12.70;99.90;;;;;;4878941;29;20068;-77
2022/11/09 06:06:03;;;;;;;4.97;3.05;;;12.70;99.90;;;;;;4896948;29;20028;-75
2022/11/09 06:08:28;;;;;;;6.18;2.92;;;12.80;99.90;;;;;;4894784;29;20032;-77
2022/11/09 06:11:02;;;;;;;5.65;2.70;;;12.80;99.90;;;;;;4896633;29;20032;-74
2022/11/09 06:13:28;;;;;;;6.60;2.67;;;12.80;99.90;;;;;;4880001;29;20044;-75
2022/11/09 06:15:55;;;;;;;5.75;2.25;;;12.80;99.90;;;;;;4895063;29;20060;-75
2022/11/09 06:18:26;;;;;;;15.45;2.42;;;12.80;99.90;;;;;;4896781;29;20053;-75
2022/11/09 06:20:52;;;;;;;9.43;2.70;;;12.80;99.90;;;;;;4897055;29;20072;-74
2022/11/09 06:23:18;;;;;;;10.63;2.85;;;12.90;99.90;;;;;;4895995;29;20057;-77
2022/11/09 06:25:44;;;;;;;6.90;2.70;;;12.90;99.90;;;;;;4897126;29;20033;-77
2022/11/09 06:28:10;;;;;;;15.50;2.72;;;12.80;99.90;;;;;;4879127;29;20044;-77
2022/11/09 06:30:35;;;;;;;7.88;2.55;;;12.90;99.90;;;;;;4896446;29;20088;-77
2022/11/09 06:33:02;;;;;;;10.73;2.45;;;12.90;99.90;;;;;;4880405;29;20025;-74
2022/11/09 06:35:28;;;;;;;6.32;2.67;;;12.90;99.90;;;;;;4878270;29;20060;-79
2022/11/09 06:37:59;;;;;;;6.55;2.70;;;12.80;99.90;;;;;;4881472;29;20040;-77
2022/11/09 06:40:26;;;;;;;12.60;2.72;;;12.90;99.90;;;;;;4893755;29;20108;-76
2022/11/09 06:42:54;;;;;;;5.72;2.67;;;12.90;99.90;;;;;;4894229;29;20025;-76
2022/11/09 06:45:20;;;;;;;6.50;3.63;;;12.90;99.90;;;;;;4895439;29;20029;-76
2022/11/09 06:47:45;;;;;;;9.57;3.63;;;12.90;99.90;;;;;;4898207;29;20039;-76
2022/11/09 06:50:11;;;;;;;11.20;3.47;;;12.90;99.90;;;;;;4897452;29;20028;-75
2022/11/09 06:52:37;;;;;;;11.30;2.38;;;12.90;99.90;;;;;;4899290;29;20056;-77
2022/11/09 06:55:03;;;;;;;9.27;2.67;;;12.90;99.90;;;;;;4898482;29;20045;-76
2022/11/09 06:57:29;;;;;;;12.23;2.85;;;12.90;99.90;;;;;;4887255;29;20027;-74
2022/11/09 06:59:55;;;;;;;7.97;3.60;;;12.90;99.90;;;;;;4896920;29;20020;-75
2022/11/09 07:02:21;;;;;;;7.80;2.95;;;12.90;99.90;;;;;;4898153;29;20048;-76
2022/11/09 07:04:50;;;;;;;5.40;3.20;;;12.90;99.90;;;;;;4895558;29;20028;-74
2022/11/09 07:07:16;;;;;;;6.57;2.85;;;12.90;99.90;;;;;;4895329;29;20036;-76
2022/11/09 07:09:41;;;;;;;8.77;2.88;;;12.80;99.90;;;;;;4896803;29;20025;-74
2022/11/09 07:12:08;;;;;;;6.65;2.83;;;12.80;99.90;;;;;;4894611;29;20501;-76
2022/11/09 07:14:34;;;;;;;8.68;3.80;;;12.80;99.90;;;;;;4895747;29;20037;-77
2022/11/09 07:17:00;;;;;;;10.65;3.92;;;12.80;99.90;;;;;;4898445;29;20024;-76
2022/11/09 07:19:28;;;;;;;7.07;2.70;;;12.80;99.90;;;;;;4880850;29;20102;-74
2022/11/09 07:21:55;;;;;;;11.15;2.65;;;12.80;99.90;;;;;;4898208;29;20041;-75
2022/11/09 07:24:21;;;;;;;7.25;2.80;;;12.80;99.90;;;;;;4898838;29;20121;-77
2022/11/09 07:26:47;;;;;;;7.80;3.20;;;12.80;99.90;;;;;;4899239;29;20047;-77
2022/11/09 07:29:13;;;;;;;9.38;2.80;;;12.80;99.90;;;;;;4882851;29;20033;-73
2022/11/09 07:31:39;;;;;;;9.52;3.53;;;12.80;99.90;;;;;;4882432;29;20029;-76
2022/11/09 07:34:05;;;;;;;12.18;3.67;;;12.80;99.90;;;;;;4897756;29;20028;-77
2022/11/09 07:36:31;;;;;;;13.82;3.92;;;12.80;99.90;;;;;;4882539;29;20442;-75
2022/11/09 07:38:57;;;;;;;13.93;3.50;;;12.80;99.90;;;;;;4881749;29;20462;-78
2022/11/09 07:41:23;;;;;;;8.57;3.53;;;12.90;99.90;;;;;;4899258;29;20049;-78
2022/11/09 07:43:49;;;;;;;16.30;3.45;;;12.90;99.90;;;;;;4882462;29;20040;-75
2022/11/09 07:46:15;;;;;;;11.73;4.22;;;12.90;99.90;;;;;;4883580;29;20490;-74
2022/11/09 07:48:41;;;;;;;9.68;3.72;;;13.00;99.90;;;;;;4899232;29;20021;-73
2022/11/09 07:51:06;;;;;;;11.52;3.55;;;13.10;99.90;;;;;;4882058;29;20032;-78
2022/11/09 07:53:32;;;;;;;9.07;3.90;;;13.10;99.90;;;;;;4897238;29;20045;-74
2022/11/09 07:56:00;;;;;;;12.48;3.50;;;13.20;99.90;;;;;;4899255;29;20029;-77
2022/11/09 07:58:26;;;;;;;7.53;2.83;;;13.20;99.90;;;;;;4897620;29;20028;-78
2022/11/09 08:00:52;;;;;;;6.10;2.30;;;13.30;99.90;;;;;;4898774;29;20052;-77
2022/11/09 08:03:19;;;;;;;9.82;2.60;;;13.40;99.90;;;;;;4897592;29;20016;-80
2022/11/09 08:05:45;;;;;;;10.18;3.25;;;13.60;99.90;;;;;;4882179;29;20024;-80
2022/11/09 08:08:12;;;;;;;7.40;2.97;;;13.80;99.90;;;;;;4896896;29;20045;-76
2022/11/09 08:10:38;;;;;;;13.93;3.08;;;14.20;99.90;;;;;;4898746;29;20028;-74
2022/11/09 08:13:14;;;;;;;11.93;2.95;;;14.40;99.90;;;;;;4899006;29;20055;-77
2022/11/09 08:15:40;;;;;;;7.20;2.40;;;14.70;99.90;;;;;;4897146;29;20033;-79
2022/11/09 08:18:12;;;;;;;8.13;2.40;;;14.90;99.90;;;;;;4882371;29;20088;-80
2022/11/09 08:20:37;;;;;;;11.52;2.63;;;15.10;99.90;;;;;;4889786;29;20040;-77
2022/11/09 08:23:03;;;;;;;7.20;2.38;;;15.10;99.90;;;;;;4898107;29;20096;-75
2022/11/09 08:25:45;;;;;;;13.27;2.42;;;15.20;99.90;;;;;;4897210;29;20056;-81
2022/11/09 08:28:10;;;;;;;6.35;2.15;;;15.20;99.90;;;;;;4896895;29;20405;-75
2022/11/09 08:30:36;;;;;;;7.20;2.40;;;15.30;99.90;;;;;;4882460;29;20056;-82
2022/11/09 08:33:02;;;;;;;6.95;2.15;;;15.20;99.90;;;;;;4899580;29;20115;-75
2022/11/09 08:35:29;;;;;;;7.00;1.95;;;15.30;99.90;;;;;;4881365;29;20032;-75
2022/11/09 08:37:55;;;;;;;6.53;2.17;;;15.40;99.90;;;;;;4897982;29;20800;-77
2022/11/09 08:40:24;;;;;;;12.98;2.17;;;15.50;99.90;;;;;;4898179;29;20040;-75
2022/11/09 08:43:01;;;;;;;12.43;2.30;;;15.40;99.90;;;;;;4896589;29;20037;-75
2022/11/09 08:45:27;;;;;;;4.80;1.73;;;15.30;99.90;;;;;;4898221;29;20039;-77
2022/11/09 08:47:57;;;;;;;6.30;2.08;;;15.30;99.90;;;;;;4882151;29;20028;-80
2022/11/09 08:50:23;;;;;;;18.52;2.38;;;15.30;99.90;;;;;;4897200;29;20032;-77
2022/11/09 08:52:48;;;;;;;10.02;2.15;;;15.30;99.90;;;;;;4880508;29;20029;-75
2022/11/09 08:55:14;;;;;;;8.20;1.90;;;15.30;99.90;;;;;;4899213;29;20035;-79
2022/11/09 08:57:40;;;;;;;8.10;2.42;;;15.20;99.90;;;;;;4882251;29;20084;-77
2022/11/09 09:00:06;;;;;;;12.85;2.35;;;15.20;99.90;;;;;;4880841;29;20048;-78
2022/11/09 09:02:32;;;;;;;8.98;2.05;;;15.20;99.90;;;;;;4897742;29;20021;-80
2022/11/09 09:05:04;;;;;;;11.07;2.20;;;15.20;99.90;;;;;;4896588;29;20092;-77
2022/11/09 09:07:30;;;;;;;10.05;2.33;;;15.10;99.90;;;;;;4897068;29;20057;-75
2022/11/09 09:09:56;;;;;;;9.40;2.35;;;15.00;99.90;;;;;;4898270;29;20057;-74
2022/11/09 09:12:22;;;;;;;7.20;2.42;;;14.90;99.90;;;;;;4898389;29;20051;-76
2022/11/09 09:14:47;;;;;;;6.03;2.10;;;14.90;99.90;;;;;;4899327;29;20039;-73
2022/11/09 09:17:13;;;;;;;10.80;2.13;;;14.80;99.90;;;;;;4898964;29;20033;-75
2022/11/09 09:19:38;;;;;;;11.68;2.85;;;14.70;99.90;;;;;;4880303;29;20029;-77
2022/11/09 09:22:04;;;;;;;13.88;3.10;;;14.60;99.90;;;;;;4898083;29;20051;-78
2022/11/09 09:24:30;;;;;;;10.02;2.55;;;14.60;99.90;;;;;;4895940;29;20045;-80
2022/11/09 09:26:56;;;;;;;10.85;2.60;;;14.60;99.90;;;;;;4896522;29;20031;-77
2022/11/09 09:29:21;;;;;;;10.32;2.22;;;14.60;99.90;;;;;;4878845;29;20043;-74
2022/11/09 09:31:47;;;;;;;9.23;2.25;;;14.60;99.90;;;;;;4894992;29;20146;-76
2022/11/09 09:34:13;;;;;;;8.82;2.65;;;14.60;99.90;;;;;;4881565;29;20037;-78
2022/11/09 09:36:44;;;;;;;15.48;2.38;;;14.60;99.90;;;;;;4898570;29;20032;-78
2022/11/09 09:39:10;;;;;;;13.25;2.25;;;14.60;99.90;;;;;;4893952;29;20032;-77
2022/11/09 09:41:41;;;;;;;6.43;1.55;;;14.60;99.90;;;;;;4897522;29;20044;-75
2022/11/09 09:44:25;;;;;;;12.27;2.60;;;14.60;99.90;;;;;;4897090;29;20075;-75
2022/11/09 09:46:58;;;;;;;9.90;2.53;;;14.60;99.90;;;;;;4897303;29;20036;-73
2022/11/09 09:49:30;;;;;;;9.05;2.13;;;14.60;99.90;;;;;;4882648;29;20092;-75
2022/11/09 09:52:15;;;;;;;11.02;2.33;;;14.60;99.90;;;;;;4899569;29;20041;-76
2022/11/09 09:54:55;;;;;;;11.02;2.25;;;14.60;99.90;;;;;;4896580;29;20024;-78
2022/11/09 09:57:26;;;;;;;9.32;2.67;;;14.60;99.90;;;;;;4895273;29;20081;-79
2022/11/09 09:59:56;;;;;;;10.43;1.90;;;14.50;99.90;;;;;;4896914;29;20355;-76
2022/11/09 10:02:24;;;;;;;13.07;2.30;;;14.60;99.90;;;;;;4897635;29;20045;-75
2022/11/09 10:04:53;;;;;;;10.20;2.25;;;14.60;99.90;;;;;;4897083;29;20084;-75
2022/11/09 10:07:25;;;;;;;10.30;2.50;;;14.70;99.90;;;;;;4896990;29;20020;-73
2022/11/09 10:09:59;;;;;;;14.38;2.55;;;14.70;99.90;;;;;;4897123;29;20147;-79
2022/11/09 10:13:03;;;;;;;8.95;2.17;;;14.80;99.90;;;;;;4897353;29;20097;-79
2022/11/09 10:16:03;;;;;;;11.32;1.98;;;14.70;99.90;;;;;;4897145;29;20112;-76
2022/11/09 10:18:57;;;;;;;9.15;1.85;;;14.70;99.90;;;;;;4876294;29;20055;-76
2022/11/09 10:21:41;;;;;;;11.30;2.42;;;14.70;99.90;;;;;;4879522;29;20048;-77
2022/11/09 10:24:28;;;;;;;16.17;2.42;;;14.60;99.90;;;;;;4894611;29;20082;-75
2022/11/09 10:27:01;;;;;;;5.18;1.80;;;14.60;99.90;;;;;;4896925;29;20044;-76
2022/11/09 10:29:42;;;;;;;17.48;2.05;;;14.60;99.90;;;;;;4880383;29;20029;-75
2022/11/09 10:32:16;;;;;;;7.57;2.05;;;14.70;99.90;;;;;;4897495;29;20020;-73
2022/11/09 10:34:54;;;;;;;7.93;2.08;;;14.80;99.90;;;;;;4894939;29;20029;-76
2022/11/09 10:37:45;;;;;;;10.93;2.05;;;14.80;99.90;;;;;;4895836;29;20032;-77
2022/11/09 10:40:15;;;;;;;7.85;1.90;;;14.80;99.90;;;;;;4896925;29;20066;-75
2022/11/09 10:42:55;;;;;;;11.48;2.33;;;15.00;99.90;;;;;;4895049;29;20027;-78
2022/11/09 10:45:33;;;;;;;11.32;2.30;;;15.10;99.90;;;;;;4896118;29;20088;-75
2022/11/09 10:48:00;;;;;;;7.53;2.20;;;15.30;99.90;;;;;;4894659;29;20033;-77
2022/11/09 10:50:33;;;;;;;13.77;2.67;;;15.40;99.90;;;;;;4897299;29;20063;-80
2022/11/09 10:53:19;;;;;;;8.47;2.27;;;15.50;99.90;;;;;;4900206;29;20021;-82
2022/11/09 10:56:16;;;;;;;7.53;1.95;;;15.60;99.90;;;;;;4900004;29;20301;-76
2022/11/09 10:58:52;;;;;;;12.10;2.45;;;15.80;99.90;;;;;;4883402;29;20049;-75
2022/11/09 11:01:34;;;;;;;8.45;2.20;;;15.90;99.90;;;;;;4900186;29;20064;-76
2022/11/09 11:04:18;;;;;;;7.55;2.33;;;15.90;99.90;;;;;;4900622;29;20052;-74
2022/11/09 11:06:44;;;;;;;11.70;2.60;;;15.90;99.90;;;;;;4899444;29;20131;-74
2022/11/09 11:09:09;;;;;;;13.95;2.20;;;15.80;99.90;;;;;;4882444;29;20084;-78
2022/11/09 11:11:37;;;;;;;8.48;2.20;;;15.80;99.90;;;;;;4894825;29;20040;-76
2022/11/09 11:14:09;;;;;;;10.73;2.28;;;15.90;99.90;;;;;;4881378;29;20029;-73
2022/11/09 11:16:36;;;;;;;9.18;1.92;;;16.00;99.90;;;;;;4910651;29;20093;-76
2022/11/09 11:19:02;;;;;;;9.93;2.25;;;16.10;99.90;;;;;;4900149;29;20079;-79
2022/11/09 11:21:28;;;;;;;10.55;1.92;;;16.10;99.90;;;;;;4897531;29;20087;-79
2022/11/09 11:24:19;;;;;;;15.15;2.15;;;16.10;99.90;;;;;;4899029;29;20101;-77
2022/11/09 11:27:05;;;;;;;14.50;2.20;;;16.40;99.90;;;;;;4882667;29;20040;-77
2022/11/09 11:29:51;;;;;;;6.53;1.90;;;16.80;99.90;;;;;;4882096;29;20060;-78
2022/11/09 11:32:18;;;;;;;14.70;2.03;;;17.20;99.90;;;;;;4882659;29;20161;-81
2022/11/09 11:34:45;;;;;;;10.73;1.92;;;17.10;99.90;;;;;;4898654;29;20028;-76
2022/11/09 11:37:29;;;;;;;7.75;1.83;;;17.00;99.90;;;;;;4887988;29;20040;-78
2022/11/09 11:39:55;;;;;;;;;;;16.70;99.90;;;;;;4901169;29;20389;-79
2022/11/09 11:42:48;;;;;;;10.13;2.25;;;16.40;99.90;;;;;;4899621;29;19923;-75
2022/11/09 11:45:23;;;;;;;11.20;1.80;;;16.00;99.90;;;;;;4898246;29;20057;-77
2022/11/09 11:48:07;;;;;;;7.20;1.95;;;15.80;99.90;;;;;;4906665;29;20033;-76
2022/11/09 11:50:41;;;;;;;8.27;2.13;;;15.80;99.90;;;;;;4908140;29;20040;-74
2022/11/09 11:53:40;;;;;;;7.63;2.00;;;15.90;99.90;;;;;;4896444;29;20037;-75
2022/11/09 11:56:19;;;;;;;7.35;1.75;;;16.00;99.90;;;;;;4896186;29;20060;-76
2022/11/09 11:59:20;;;;;;;9.35;2.00;;;16.20;99.90;;;;;;4881977;29;20029;-74
2022/11/09 12:02:20;;;;;;;7.47;1.80;;;16.30;99.90;;;;;;4888360;29;20052;-76
2022/11/09 12:05:16;;;;;;;11.05;2.50;;;16.50;99.90;;;;;;4881286;29;20604;-79
2022/11/09 12:07:47;;;;;;;13.43;2.03;;;16.70;99.90;;;;;;4897020;29;20033;-73
2022/11/09 12:10:22;;;;;;;12.70;2.35;;;16.80;99.90;;;;;;4896701;29;20032;-75
2022/11/09 12:12:58;;;;;;;6.82;1.90;;;17.00;99.90;;;;;;4898680;29;20048;-74
2022/11/09 12:15:45;;;;;;;10.70;2.20;;;17.10;99.90;;;;;;4895510;29;20128;-76
2022/11/09 12:19:09;;;;;;;14.15;2.28;;;17.20;99.90;;;;;;4895334;29;20115;-75
2022/11/09 12:22:04;;;;;;;5.32;1.50;;;17.50;99.90;;;;;;4829117;29;20058;-79
2022/11/09 12:24:39;;;;;;;;;;;17.60;99.90;;;;;;4826325;29;20577;-73
2022/11/09 12:27:07;;;;;;;9.15;1.77;;;17.60;99.90;;;;;;4878730;29;19987;-76
2022/11/09 12:30:15;;;;;;;7.90;1.80;;;17.50;99.90;;;;;;4898919;29;20020;-79
2022/11/09 12:33:02;;;;;;;6.68;1.70;;;17.30;99.90;;;;;;4897878;29;20096;-77
2022/11/09 12:35:48;;;;;;;8.85;1.52;;;17.10;99.90;;;;;;4886252;29;20024;-76
2022/11/09 12:38:23;;;;;;;7.07;1.88;;;17.00;99.90;;;;;;4905427;29;20036;-77
2022/11/09 12:41:05;;;;;;;;;;;17.00;99.90;;;;;;4897415;29;20170;-78
2022/11/09 12:43:48;;;;;;;8.00;1.67;;;17.00;99.90;;;;;;4897860;29;19933;-79
2022/11/09 12:46:16;;;;;;;4.00;1.40;;;16.90;99.90;;;;;;4898060;29;20028;-75
2022/11/09 12:48:43;;;;;;;6.38;1.77;;;16.80;99.90;;;;;;4879825;29;20040;-73
2022/11/09 12:51:09;;;;;;;7.57;1.90;;;16.70;99.90;;;;;;4897514;29;20029;-79
2022/11/09 12:53:36;;;;;;;6.03;1.45;;;16.60;99.90;;;;;;4896537;29;20117;-78
2022/11/09 12:56:30;;;;;;;7.13;1.63;;;16.60;99.90;;;;;;4898006;29;20036;-76
2022/11/09 12:59:27;;;;;;;8.63;1.73;;;16.80;99.90;;;;;;4875239;29;20040;-75